sensor_id;sensor_type;location;lat;lon;timestamp;temperature;humidity
24678;DHT22;12800;53.094;8.778;2023-03-20T00:00:46;12.10;83.00
24678;DHT22;12800;53.094;8.778;2023-03-20T00:03:12;12.10;82.90
24678;DHT22;12800;53.094;8.778;2023-03-20T00:05:38;12.10;82.80
24678;DHT22;12800;53.094;8.778;2023-03-20T00:08:04;12.10;82.80
24678;DHT22;12800;53.094;8.778;2023-03-20T00:10:43;12.10;82.70
24678;DHT22;12800;53.094;8.778;2023-03-20T00:13:24;12.10;82.70
24678;DHT22;12800;53.094;8.778;2023-03-20T00:15:51;12.10;82.60
24678;DHT22;12800;53.094;8.778;2023-03-20T00:18:20;12.10;82.60
24678;DHT22;12800;53.094;8.778;2023-03-20T00:20:48;12.10;82.60
24678;DHT22;12800;53.094;8.778;2023-03-20T00:23:14;12.00;82.70
24678;DHT22;12800;53.094;8.778;2023-03-20T00:25:41;12.10;82.70
24678;DHT22;12800;53.094;8.778;2023-03-20T00:30:51;12.00;82.60
24678;DHT22;12800;53.094;8.778;2023-03-20T00:33:17;12.00;82.40
24678;DHT22;12800;53.094;8.778;2023-03-20T00:35:43;12.00;82.40
24678;DHT22;12800;53.094;8.778;2023-03-20T00:38:08;12.00;82.30
24678;DHT22;12800;53.094;8.778;2023-03-20T00:40:34;12.00;82.30
24678;DHT22;12800;53.094;8.778;2023-03-20T00:43:01;12.00;82.30
24678;DHT22;12800;53.094;8.778;2023-03-20T00:45:28;12.00;82.30
24678;DHT22;12800;53.094;8.778;2023-03-20T00:47:55;12.00;82.30
24678;DHT22;12800;53.094;8.778;2023-03-20T00:50:29;12.00;82.30
24678;DHT22;12800;53.094;8.778;2023-03-20T00:52:56;12.00;82.20
24678;DHT22;12800;53.094;8.778;2023-03-20T00:55:25;12.00;82.10
24678;DHT22;12800;53.094;8.778;2023-03-20T00:57:55;11.90;82.20
24678;DHT22;12800;53.094;8.778;2023-03-20T01:02:51;11.90;82.30
24678;DHT22;12800;53.094;8.778;2023-03-20T01:05:17;11.90;82.30
24678;DHT22;12800;53.094;8.778;2023-03-20T01:07:43;11.90;82.40
24678;DHT22;12800;53.094;8.778;2023-03-20T01:10:10;11.90;82.40
24678;DHT22;12800;53.094;8.778;2023-03-20T01:12:38;11.80;82.40
24678;DHT22;12800;53.094;8.778;2023-03-20T01:15:15;11.80;82.50
24678;DHT22;12800;53.094;8.778;2023-03-20T01:17:41;11.80;82.70
24678;DHT22;12800;53.094;8.778;2023-03-20T01:20:20;11.80;82.80
24678;DHT22;12800;53.094;8.778;2023-03-20T01:22:46;11.80;82.90
24678;DHT22;12800;53.094;8.778;2023-03-20T01:25:11;11.80;83.00
24678;DHT22;12800;53.094;8.778;2023-03-20T01:27:37;11.80;83.10
24678;DHT22;12800;53.094;8.778;2023-03-20T01:30:05;11.80;83.10
24678;DHT22;12800;53.094;8.778;2023-03-20T01:32:33;11.70;83.20
24678;DHT22;12800;53.094;8.778;2023-03-20T01:34:59;11.70;83.50
24678;DHT22;12800;53.094;8.778;2023-03-20T01:37:26;11.70;83.50
24678;DHT22;12800;53.094;8.778;2023-03-20T01:39:52;11.70;83.50
24678;DHT22;12800;53.094;8.778;2023-03-20T01:42:18;11.70;83.40
24678;DHT22;12800;53.094;8.778;2023-03-20T01:44:43;11.60;83.20
24678;DHT22;12800;53.094;8.778;2023-03-20T01:47:18;11.60;83.30
24678;DHT22;12800;53.094;8.778;2023-03-20T01:52:45;11.50;82.90
24678;DHT22;12800;53.094;8.778;2023-03-20T01:55:12;11.40;82.80
24678;DHT22;12800;53.094;8.778;2023-03-20T01:57:38;11.40;82.80
24678;DHT22;12800;53.094;8.778;2023-03-20T02:00:10;11.30;82.80
24678;DHT22;12800;53.094;8.778;2023-03-20T02:02:37;11.30;82.80
24678;DHT22;12800;53.094;8.778;2023-03-20T02:05:08;11.30;82.80
24678;DHT22;12800;53.094;8.778;2023-03-20T02:07:35;11.30;82.80
24678;DHT22;12800;53.094;8.778;2023-03-20T02:10:12;11.30;82.90
24678;DHT22;12800;53.094;8.778;2023-03-20T02:12:38;11.30;82.80
24678;DHT22;12800;53.094;8.778;2023-03-20T02:15:05;11.30;82.90
24678;DHT22;12800;53.094;8.778;2023-03-20T02:17:31;11.30;83.00
24678;DHT22;12800;53.094;8.778;2023-03-20T02:20:18;11.30;83.00
24678;DHT22;12800;53.094;8.778;2023-03-20T02:25:26;11.20;83.00
24678;DHT22;12800;53.094;8.778;2023-03-20T02:28:20;11.20;83.10
24678;DHT22;12800;53.094;8.778;2023-03-20T02:31:40;11.20;83.20
24678;DHT22;12800;53.094;8.778;2023-03-20T02:47:45;11.10;83.10
24678;DHT22;12800;53.094;8.778;2023-03-20T02:52:57;11.10;83.00
24678;DHT22;12800;53.094;8.778;2023-03-20T02:55:44;11.10;82.80
24678;DHT22;12800;53.094;8.778;2023-03-20T03:01:10;11.10;82.40
24678;DHT22;12800;53.094;8.778;2023-03-20T03:06:27;11.10;82.30
24678;DHT22;12800;53.094;8.778;2023-03-20T03:09:13;11.00;82.00
24678;DHT22;12800;53.094;8.778;2023-03-20T03:11:44;11.00;81.90
24678;DHT22;12800;53.094;8.778;2023-03-20T03:14:18;11.00;81.80
24678;DHT22;12800;53.094;8.778;2023-03-20T03:16:47;11.00;81.90
24678;DHT22;12800;53.094;8.778;2023-03-20T03:19:20;11.10;81.90
24678;DHT22;12800;53.094;8.778;2023-03-20T03:21:47;11.00;81.80
24678;DHT22;12800;53.094;8.778;2023-03-20T03:24:34;11.10;81.80
24678;DHT22;12800;53.094;8.778;2023-03-20T03:27:03;11.10;81.80
24678;DHT22;12800;53.094;8.778;2023-03-20T03:29:33;11.10;81.70
24678;DHT22;12800;53.094;8.778;2023-03-20T03:32:03;11.10;81.70
24678;DHT22;12800;53.094;8.778;2023-03-20T03:34:30;11.00;81.70
24678;DHT22;12800;53.094;8.778;2023-03-20T03:37:14;11.10;81.80
24678;DHT22;12800;53.094;8.778;2023-03-20T03:39:52;11.10;81.80
24678;DHT22;12800;53.094;8.778;2023-03-20T03:47:52;11.00;81.70
24678;DHT22;12800;53.094;8.778;2023-03-20T03:50:27;11.00;81.80
24678;DHT22;12800;53.094;8.778;2023-03-20T03:52:55;11.00;81.80
24678;DHT22;12800;53.094;8.778;2023-03-20T03:55:26;11.00;81.80
24678;DHT22;12800;53.094;8.778;2023-03-20T03:58:00;11.00;81.80
24678;DHT22;12800;53.094;8.778;2023-03-20T04:00:27;11.00;82.00
24678;DHT22;12800;53.094;8.778;2023-03-20T04:02:56;11.00;82.10
24678;DHT22;12800;53.094;8.778;2023-03-20T04:05:24;11.00;82.10
24678;DHT22;12800;53.094;8.778;2023-03-20T04:07:57;11.00;82.10
24678;DHT22;12800;53.094;8.778;2023-03-20T04:10:23;10.90;82.10
24678;DHT22;12800;53.094;8.778;2023-03-20T04:12:48;10.90;82.30
24678;DHT22;12800;53.094;8.778;2023-03-20T04:15:15;10.90;82.40
24678;DHT22;12800;53.094;8.778;2023-03-20T04:17:41;10.90;82.50
24678;DHT22;12800;53.094;8.778;2023-03-20T04:20:08;10.90;82.60
24678;DHT22;12800;53.094;8.778;2023-03-20T04:22:34;10.90;82.80
24678;DHT22;12800;53.094;8.778;2023-03-20T04:25:03;10.90;82.80
24678;DHT22;12800;53.094;8.778;2023-03-20T04:27:29;10.90;82.90
24678;DHT22;12800;53.094;8.778;2023-03-20T04:29:55;10.90;82.80
24678;DHT22;12800;53.094;8.778;2023-03-20T04:32:21;10.90;82.90
24678;DHT22;12800;53.094;8.778;2023-03-20T04:34:46;10.80;82.90
24678;DHT22;12800;53.094;8.778;2023-03-20T04:37:12;10.80;82.90
24678;DHT22;12800;53.094;8.778;2023-03-20T04:39:38;10.80;83.20
24678;DHT22;12800;53.094;8.778;2023-03-20T04:42:06;10.80;83.30
24678;DHT22;12800;53.094;8.778;2023-03-20T04:44:32;10.80;83.40
24678;DHT22;12800;53.094;8.778;2023-03-20T04:46:58;10.90;83.40
24678;DHT22;12800;53.094;8.778;2023-03-20T04:49:24;10.90;83.40
24678;DHT22;12800;53.094;8.778;2023-03-20T04:51:51;10.90;83.40
24678;DHT22;12800;53.094;8.778;2023-03-20T04:54:17;10.90;83.40
24678;DHT22;12800;53.094;8.778;2023-03-20T04:56:42;10.90;83.40
24678;DHT22;12800;53.094;8.778;2023-03-20T04:59:08;11.00;83.30
24678;DHT22;12800;53.094;8.778;2023-03-20T05:01:34;11.00;83.30
24678;DHT22;12800;53.094;8.778;2023-03-20T05:03:59;11.00;83.30
24678;DHT22;12800;53.094;8.778;2023-03-20T05:06:29;11.00;83.30
24678;DHT22;12800;53.094;8.778;2023-03-20T05:08:56;11.00;83.30
24678;DHT22;12800;53.094;8.778;2023-03-20T05:11:24;11.00;83.30
24678;DHT22;12800;53.094;8.778;2023-03-20T05:13:50;11.00;83.30
24678;DHT22;12800;53.094;8.778;2023-03-20T05:16:16;10.90;83.20
24678;DHT22;12800;53.094;8.778;2023-03-20T05:18:41;10.90;84.10
24678;DHT22;12800;53.094;8.778;2023-03-20T05:21:07;10.90;83.30
24678;DHT22;12800;53.094;8.778;2023-03-20T05:23:33;10.90;83.30
24678;DHT22;12800;53.094;8.778;2023-03-20T05:25:59;10.90;84.10
24678;DHT22;12800;53.094;8.778;2023-03-20T05:28:25;10.90;83.40
24678;DHT22;12800;53.094;8.778;2023-03-20T05:30:50;10.90;83.50
24678;DHT22;12800;53.094;8.778;2023-03-20T05:33:16;10.90;83.40
24678;DHT22;12800;53.094;8.778;2023-03-20T05:35:42;10.90;83.50
24678;DHT22;12800;53.094;8.778;2023-03-20T05:38:07;10.90;83.50
24678;DHT22;12800;53.094;8.778;2023-03-20T05:40:33;11.00;83.60
24678;DHT22;12800;53.094;8.778;2023-03-20T05:42:58;11.00;83.60
24678;DHT22;12800;53.094;8.778;2023-03-20T05:45:24;11.00;83.60
24678;DHT22;12800;53.094;8.778;2023-03-20T05:47:50;11.00;83.70
24678;DHT22;12800;53.094;8.778;2023-03-20T05:50:15;11.00;83.70
24678;DHT22;12800;53.094;8.778;2023-03-20T05:52:41;11.00;83.80
24678;DHT22;12800;53.094;8.778;2023-03-20T05:55:07;11.00;83.80
24678;DHT22;12800;53.094;8.778;2023-03-20T05:57:32;11.00;83.90
24678;DHT22;12800;53.094;8.778;2023-03-20T05:59:58;11.00;83.90
24678;DHT22;12800;53.094;8.778;2023-03-20T06:02:23;11.00;83.80
24678;DHT22;12800;53.094;8.778;2023-03-20T06:04:49;11.00;83.80
24678;DHT22;12800;53.094;8.778;2023-03-20T06:07:15;11.00;83.90
24678;DHT22;12800;53.094;8.778;2023-03-20T06:09:40;11.00;83.90
24678;DHT22;12800;53.094;8.778;2023-03-20T06:12:06;11.00;84.50
24678;DHT22;12800;53.094;8.778;2023-03-20T06:14:32;11.00;83.70
24678;DHT22;12800;53.094;8.778;2023-03-20T06:16:58;11.00;83.50
24678;DHT22;12800;53.094;8.778;2023-03-20T06:19:25;11.00;83.50
24678;DHT22;12800;53.094;8.778;2023-03-20T06:21:50;11.00;83.40
24678;DHT22;12800;53.094;8.778;2023-03-20T06:24:16;11.00;83.20
24678;DHT22;12800;53.094;8.778;2023-03-20T06:26:42;11.00;83.20
24678;DHT22;12800;53.094;8.778;2023-03-20T06:29:08;11.00;83.10
24678;DHT22;12800;53.094;8.778;2023-03-20T06:31:33;11.00;83.00
24678;DHT22;12800;53.094;8.778;2023-03-20T06:33:59;11.00;82.70
24678;DHT22;12800;53.094;8.778;2023-03-20T06:36:25;11.00;82.70
24678;DHT22;12800;53.094;8.778;2023-03-20T06:38:51;11.00;82.60
24678;DHT22;12800;53.094;8.778;2023-03-20T06:41:16;11.10;82.50
24678;DHT22;12800;53.094;8.778;2023-03-20T06:43:42;11.10;82.30
24678;DHT22;12800;53.094;8.778;2023-03-20T06:46:08;11.10;82.10
24678;DHT22;12800;53.094;8.778;2023-03-20T06:48:34;11.10;81.90
24678;DHT22;12800;53.094;8.778;2023-03-20T06:51:01;11.10;81.70
24678;DHT22;12800;53.094;8.778;2023-03-20T06:53:26;11.10;81.40
24678;DHT22;12800;53.094;8.778;2023-03-20T06:55:52;11.10;81.80
24678;DHT22;12800;53.094;8.778;2023-03-20T06:58:19;11.10;80.90
24678;DHT22;12800;53.094;8.778;2023-03-20T07:00:44;11.20;80.90
24678;DHT22;12800;53.094;8.778;2023-03-20T07:03:11;11.20;80.80
24678;DHT22;12800;53.094;8.778;2023-03-20T07:05:37;11.20;80.70
24678;DHT22;12800;53.094;8.778;2023-03-20T07:08:04;11.20;80.50
24678;DHT22;12800;53.094;8.778;2023-03-20T07:10:30;11.20;80.30
24678;DHT22;12800;53.094;8.778;2023-03-20T07:12:56;11.20;80.20
24678;DHT22;12800;53.094;8.778;2023-03-20T07:15:22;11.30;80.50
24678;DHT22;12800;53.094;8.778;2023-03-20T07:17:47;11.30;80.20
24678;DHT22;12800;53.094;8.778;2023-03-20T07:20:13;11.30;79.80
24678;DHT22;12800;53.094;8.778;2023-03-20T07:22:40;11.30;79.50
24678;DHT22;12800;53.094;8.778;2023-03-20T07:25:09;11.40;79.60
24678;DHT22;12800;53.094;8.778;2023-03-20T07:27:35;11.40;79.30
24678;DHT22;12800;53.094;8.778;2023-03-20T07:30:03;11.40;79.20
24678;DHT22;12800;53.094;8.778;2023-03-20T07:32:29;11.50;78.90
24678;DHT22;12800;53.094;8.778;2023-03-20T07:34:55;11.50;78.70
24678;DHT22;12800;53.094;8.778;2023-03-20T07:37:20;11.40;78.40
24678;DHT22;12800;53.094;8.778;2023-03-20T07:39:46;11.40;78.60
24678;DHT22;12800;53.094;8.778;2023-03-20T07:42:11;11.50;78.60
24678;DHT22;12800;53.094;8.778;2023-03-20T07:44:38;11.50;78.20
24678;DHT22;12800;53.094;8.778;2023-03-20T07:47:04;11.50;78.20
24678;DHT22;12800;53.094;8.778;2023-03-20T07:49:30;11.50;78.10
24678;DHT22;12800;53.094;8.778;2023-03-20T07:51:56;11.50;77.90
24678;DHT22;12800;53.094;8.778;2023-03-20T07:54:22;11.60;77.80
24678;DHT22;12800;53.094;8.778;2023-03-20T07:56:48;11.60;77.60
24678;DHT22;12800;53.094;8.778;2023-03-20T07:59:15;11.60;77.30
24678;DHT22;12800;53.094;8.778;2023-03-20T08:01:41;11.60;77.10
24678;DHT22;12800;53.094;8.778;2023-03-20T08:04:06;11.50;77.80
24678;DHT22;12800;53.094;8.778;2023-03-20T08:06:32;11.50;77.10
24678;DHT22;12800;53.094;8.778;2023-03-20T08:08:58;11.50;77.00
24678;DHT22;12800;53.094;8.778;2023-03-20T08:11:23;11.50;76.80
24678;DHT22;12800;53.094;8.778;2023-03-20T08:13:49;11.50;76.60
24678;DHT22;12800;53.094;8.778;2023-03-20T08:16:14;11.60;76.60
24678;DHT22;12800;53.094;8.778;2023-03-20T08:18:40;11.60;76.50
24678;DHT22;12800;53.094;8.778;2023-03-20T08:21:07;11.60;76.40
24678;DHT22;12800;53.094;8.778;2023-03-20T08:23:33;11.70;77.10
24678;DHT22;12800;53.094;8.778;2023-03-20T08:25:58;11.70;76.20
24678;DHT22;12800;53.094;8.778;2023-03-20T08:28:24;11.70;76.20
24678;DHT22;12800;53.094;8.778;2023-03-20T08:30:50;11.70;75.70
24678;DHT22;12800;53.094;8.778;2023-03-20T08:33:17;11.70;75.70
24678;DHT22;12800;53.094;8.778;2023-03-20T08:35:43;11.70;75.60
24678;DHT22;12800;53.094;8.778;2023-03-20T08:38:18;11.70;76.60
24678;DHT22;12800;53.094;8.778;2023-03-20T08:40:44;11.70;75.40
24678;DHT22;12800;53.094;8.778;2023-03-20T08:43:09;11.70;75.20
24678;DHT22;12800;53.094;8.778;2023-03-20T08:45:36;11.70;75.00
24678;DHT22;12800;53.094;8.778;2023-03-20T08:48:01;11.70;75.10
24678;DHT22;12800;53.094;8.778;2023-03-20T08:50:27;11.70;75.00
24678;DHT22;12800;53.094;8.778;2023-03-20T08:52:52;11.80;75.00
24678;DHT22;12800;53.094;8.778;2023-03-20T08:55:18;11.80;74.60
24678;DHT22;12800;53.094;8.778;2023-03-20T08:57:45;11.80;74.70
24678;DHT22;12800;53.094;8.778;2023-03-20T09:00:12;11.80;74.50
24678;DHT22;12800;53.094;8.778;2023-03-20T09:02:40;11.90;74.40
24678;DHT22;12800;53.094;8.778;2023-03-20T09:05:07;12.00;74.20
24678;DHT22;12800;53.094;8.778;2023-03-20T09:07:32;12.00;74.10
24678;DHT22;12800;53.094;8.778;2023-03-20T09:09:58;12.10;73.80
24678;DHT22;12800;53.094;8.778;2023-03-20T09:12:24;12.10;73.30
24678;DHT22;12800;53.094;8.778;2023-03-20T09:14:49;12.20;73.30
24678;DHT22;12800;53.094;8.778;2023-03-20T09:17:15;12.30;73.00
24678;DHT22;12800;53.094;8.778;2023-03-20T09:19:41;12.30;72.60
24678;DHT22;12800;53.094;8.778;2023-03-20T09:22:12;12.30;72.30
24678;DHT22;12800;53.094;8.778;2023-03-20T09:24:38;12.30;72.00
24678;DHT22;12800;53.094;8.778;2023-03-20T09:27:03;12.40;72.00
24678;DHT22;12800;53.094;8.778;2023-03-20T09:29:29;12.40;71.70
24678;DHT22;12800;53.094;8.778;2023-03-20T09:31:55;12.50;71.70
24678;DHT22;12800;53.094;8.778;2023-03-20T09:34:20;12.50;71.60
24678;DHT22;12800;53.094;8.778;2023-03-20T09:36:46;12.60;71.50
24678;DHT22;12800;53.094;8.778;2023-03-20T09:39:12;12.70;71.10
24678;DHT22;12800;53.094;8.778;2023-03-20T09:41:38;12.70;70.90
24678;DHT22;12800;53.094;8.778;2023-03-20T09:44:42;12.70;70.80
24678;DHT22;12800;53.094;8.778;2023-03-20T09:52:44;12.60;70.20
24678;DHT22;12800;53.094;8.778;2023-03-20T09:55:15;12.60;70.00
24678;DHT22;12800;53.094;8.778;2023-03-20T09:57:44;12.60;70.00
24678;DHT22;12800;53.094;8.778;2023-03-20T10:00:21;12.70;70.10
24678;DHT22;12800;53.094;8.778;2023-03-20T10:03:04;12.70;70.90
24678;DHT22;12800;53.094;8.778;2023-03-20T10:05:43;12.70;69.70
24678;DHT22;12800;53.094;8.778;2023-03-20T10:08:13;12.80;69.40
24678;DHT22;12800;53.094;8.778;2023-03-20T10:13:52;12.90;68.90
24678;DHT22;12800;53.094;8.778;2023-03-20T10:16:38;12.90;69.30
24678;DHT22;12800;53.094;8.778;2023-03-20T10:24:43;12.80;68.70
24678;DHT22;12800;53.094;8.778;2023-03-20T10:35:12;12.80;68.50
24678;DHT22;12800;53.094;8.778;2023-03-20T10:42:54;13.10;68.10
24678;DHT22;12800;53.094;8.778;2023-03-20T10:45:32;13.10;67.80
24678;DHT22;12800;53.094;8.778;2023-03-20T10:48:03;13.20;67.20
24678;DHT22;12800;53.094;8.778;2023-03-20T10:50:36;13.20;67.30
24678;DHT22;12800;53.094;8.778;2023-03-20T10:53:04;13.20;67.10
24678;DHT22;12800;53.094;8.778;2023-03-20T10:55:36;13.20;67.70
24678;DHT22;12800;53.094;8.778;2023-03-20T10:58:17;13.30;67.80
24678;DHT22;12800;53.094;8.778;2023-03-20T11:00:44;13.30;66.30
24678;DHT22;12800;53.094;8.778;2023-03-20T11:03:20;13.30;65.70
24678;DHT22;12800;53.094;8.778;2023-03-20T11:05:52;13.30;65.70
24678;DHT22;12800;53.094;8.778;2023-03-20T11:08:22;13.40;65.50
24678;DHT22;12800;53.094;8.778;2023-03-20T11:10:58;13.40;65.40
24678;DHT22;12800;53.094;8.778;2023-03-20T11:13:35;13.50;65.40
24678;DHT22;12800;53.094;8.778;2023-03-20T11:18:34;13.70;64.90
24678;DHT22;12800;53.094;8.778;2023-03-20T11:21:01;13.80;64.70
24678;DHT22;12800;53.094;8.778;2023-03-20T11:23:36;13.90;64.70
24678;DHT22;12800;53.094;8.778;2023-03-20T11:26:04;14.00;64.10
24678;DHT22;12800;53.094;8.778;2023-03-20T11:28:38;14.00;63.60
24678;DHT22;12800;53.094;8.778;2023-03-20T11:36:54;14.10;63.60
24678;DHT22;12800;53.094;8.778;2023-03-20T11:39:27;14.20;63.50
24678;DHT22;12800;53.094;8.778;2023-03-20T11:41:55;14.20;63.10
24678;DHT22;12800;53.094;8.778;2023-03-20T11:44:29;14.30;62.80
24678;DHT22;12800;53.094;8.778;2023-03-20T11:47:04;14.20;62.70
24678;DHT22;12800;53.094;8.778;2023-03-20T11:49:32;14.30;63.00
24678;DHT22;12800;53.094;8.778;2023-03-20T11:52:12;14.20;62.70
24678;DHT22;12800;53.094;8.778;2023-03-20T11:54:45;14.20;62.40
24678;DHT22;12800;53.094;8.778;2023-03-20T11:57:37;14.30;62.40
24678;DHT22;12800;53.094;8.778;2023-03-20T12:02:30;14.40;62.30
24678;DHT22;12800;53.094;8.778;2023-03-20T12:04:59;14.50;62.40
24678;DHT22;12800;53.094;8.778;2023-03-20T12:07:30;14.50;62.90
24678;DHT22;12800;53.094;8.778;2023-03-20T12:10:06;14.50;61.90
24678;DHT22;12800;53.094;8.778;2023-03-20T12:15:26;14.50;61.70
24678;DHT22;12800;53.094;8.778;2023-03-20T12:20:38;14.30;61.00
24678;DHT22;12800;53.094;8.778;2023-03-20T12:28:27;14.30;61.10
24678;DHT22;12800;53.094;8.778;2023-03-20T12:31:21;14.20;60.70
24678;DHT22;12800;53.094;8.778;2023-03-20T12:36:45;14.30;60.70
24678;DHT22;12800;53.094;8.778;2023-03-20T12:39:14;14.20;60.30
24678;DHT22;12800;53.094;8.778;2023-03-20T12:49:41;14.00;60.60
24678;DHT22;12800;53.094;8.778;2023-03-20T12:52:14;13.90;60.50
24678;DHT22;12800;53.094;8.778;2023-03-20T13:03:24;13.80;61.20
24678;DHT22;12800;53.094;8.778;2023-03-20T13:05:48;13.80;61.20
24678;DHT22;12800;53.094;8.778;2023-03-20T13:14:09;13.70;61.00
24678;DHT22;12800;53.094;8.778;2023-03-20T13:16:44;13.70;61.00
24678;DHT22;12800;53.094;8.778;2023-03-20T13:19:33;13.70;61.30
24678;DHT22;12800;53.094;8.778;2023-03-20T13:22:21;13.70;61.30
24678;DHT22;12800;53.094;8.778;2023-03-20T13:24:54;13.70;61.20
24678;DHT22;12800;53.094;8.778;2023-03-20T13:27:49;13.60;61.30
24678;DHT22;12800;53.094;8.778;2023-03-20T13:30:38;13.70;61.70
24678;DHT22;12800;53.094;8.778;2023-03-20T13:36:03;13.70;61.60
24678;DHT22;12800;53.094;8.778;2023-03-20T13:38:42;13.70;61.50
24678;DHT22;12800;53.094;8.778;2023-03-20T13:41:10;13.70;61.40
24678;DHT22;12800;53.094;8.778;2023-03-20T13:43:44;13.70;61.60
24678;DHT22;12800;53.094;8.778;2023-03-20T13:46:17;13.70;61.40
24678;DHT22;12800;53.094;8.778;2023-03-20T13:48:44;13.70;61.40
24678;DHT22;12800;53.094;8.778;2023-03-20T13:51:34;13.80;61.40
24678;DHT22;12800;53.094;8.778;2023-03-20T14:04:26;13.80;61.20
24678;DHT22;12800;53.094;8.778;2023-03-20T14:06:53;13.80;61.20
24678;DHT22;12800;53.094;8.778;2023-03-20T14:09:28;13.80;61.30
24678;DHT22;12800;53.094;8.778;2023-03-20T14:12:10;13.80;61.50
24678;DHT22;12800;53.094;8.778;2023-03-20T14:14:48;13.80;61.70
24678;DHT22;12800;53.094;8.778;2023-03-20T14:17:20;13.80;61.70
24678;DHT22;12800;53.094;8.778;2023-03-20T14:19:48;13.80;62.50
24678;DHT22;12800;53.094;8.778;2023-03-20T14:22:28;13.80;61.60
24678;DHT22;12800;53.094;8.778;2023-03-20T14:25:05;13.70;61.90
24678;DHT22;12800;53.094;8.778;2023-03-20T14:27:55;13.70;62.10
24678;DHT22;12800;53.094;8.778;2023-03-20T14:33:05;13.60;62.40
24678;DHT22;12800;53.094;8.778;2023-03-20T14:36:11;13.60;62.80
24678;DHT22;12800;53.094;8.778;2023-03-20T14:38:54;13.50;63.60
24678;DHT22;12800;53.094;8.778;2023-03-20T14:41:53;13.50;63.20
24678;DHT22;12800;53.094;8.778;2023-03-20T14:44:28;13.40;63.60
24678;DHT22;12800;53.094;8.778;2023-03-20T14:47:20;13.30;63.60
24678;DHT22;12800;53.094;8.778;2023-03-20T14:55:28;13.10;64.50
24678;DHT22;12800;53.094;8.778;2023-03-20T14:57:56;13.00;64.40
24678;DHT22;12800;53.094;8.778;2023-03-20T15:00:24;12.90;64.70
24678;DHT22;12800;53.094;8.778;2023-03-20T15:03:08;12.90;65.00
24678;DHT22;12800;53.094;8.778;2023-03-20T15:05:37;12.90;65.60
24678;DHT22;12800;53.094;8.778;2023-03-20T15:08:07;12.80;65.40
24678;DHT22;12800;53.094;8.778;2023-03-20T15:10:34;12.80;65.70
24678;DHT22;12800;53.094;8.778;2023-03-20T15:13:04;12.70;66.00
24678;DHT22;12800;53.094;8.778;2023-03-20T15:15:31;12.70;66.50
24678;DHT22;12800;53.094;8.778;2023-03-20T15:18:12;12.70;66.80
24678;DHT22;12800;53.094;8.778;2023-03-20T15:20:38;12.60;68.10
24678;DHT22;12800;53.094;8.778;2023-03-20T15:23:04;12.60;67.60
24678;DHT22;12800;53.094;8.778;2023-03-20T15:25:38;12.50;68.70
24678;DHT22;12800;53.094;8.778;2023-03-20T15:28:06;12.60;68.20
24678;DHT22;12800;53.094;8.778;2023-03-20T15:30:37;12.60;68.30
24678;DHT22;12800;53.094;8.778;2023-03-20T15:33:03;12.60;68.30
24678;DHT22;12800;53.094;8.778;2023-03-20T15:35:29;12.60;68.20
24678;DHT22;12800;53.094;8.778;2023-03-20T15:37:57;12.60;68.10
24678;DHT22;12800;53.094;8.778;2023-03-20T15:40:30;12.60;68.20
24678;DHT22;12800;53.094;8.778;2023-03-20T15:43:04;12.60;68.00
24678;DHT22;12800;53.094;8.778;2023-03-20T15:45:33;12.60;67.90
24678;DHT22;12800;53.094;8.778;2023-03-20T15:48:07;12.60;68.80
24678;DHT22;12800;53.094;8.778;2023-03-20T15:50:36;12.60;68.10
24678;DHT22;12800;53.094;8.778;2023-03-20T15:53:03;12.60;68.00
24678;DHT22;12800;53.094;8.778;2023-03-20T15:55:30;12.70;68.00
24678;DHT22;12800;53.094;8.778;2023-03-20T15:57:58;12.70;68.00
24678;DHT22;12800;53.094;8.778;2023-03-20T16:00:32;12.60;68.00
24678;DHT22;12800;53.094;8.778;2023-03-20T16:03:03;12.60;68.10
24678;DHT22;12800;53.094;8.778;2023-03-20T16:05:30;12.70;68.40
24678;DHT22;12800;53.094;8.778;2023-03-20T16:07:56;12.70;68.60
24678;DHT22;12800;53.094;8.778;2023-03-20T16:10:31;12.60;68.60
24678;DHT22;12800;53.094;8.778;2023-03-20T16:13:01;12.60;69.70
24678;DHT22;12800;53.094;8.778;2023-03-20T16:15:29;12.60;68.90
24678;DHT22;12800;53.094;8.778;2023-03-20T16:18:03;12.60;69.00
24678;DHT22;12800;53.094;8.778;2023-03-20T16:20:35;12.60;68.90
24678;DHT22;12800;53.094;8.778;2023-03-20T16:23:05;12.50;68.90
24678;DHT22;12800;53.094;8.778;2023-03-20T16:25:33;12.50;68.90
24678;DHT22;12800;53.094;8.778;2023-03-20T16:27:59;12.50;69.00
24678;DHT22;12800;53.094;8.778;2023-03-20T16:30:29;12.50;69.20
24678;DHT22;12800;53.094;8.778;2023-03-20T16:33:04;12.50;69.50
24678;DHT22;12800;53.094;8.778;2023-03-20T16:35:44;12.40;69.30
24678;DHT22;12800;53.094;8.778;2023-03-20T16:38:27;12.40;69.10
24678;DHT22;12800;53.094;8.778;2023-03-20T16:41:14;12.40;69.30
24678;DHT22;12800;53.094;8.778;2023-03-20T16:43:45;12.40;69.50
24678;DHT22;12800;53.094;8.778;2023-03-20T16:46:18;12.30;69.70
24678;DHT22;12800;53.094;8.778;2023-03-20T16:48:44;12.30;69.90
24678;DHT22;12800;53.094;8.778;2023-03-20T16:51:20;12.30;70.00
24678;DHT22;12800;53.094;8.778;2023-03-20T16:53:48;12.30;69.90
24678;DHT22;12800;53.094;8.778;2023-03-20T16:56:33;12.30;69.60
24678;DHT22;12800;53.094;8.778;2023-03-20T16:59:07;12.20;69.60
24678;DHT22;12800;53.094;8.778;2023-03-20T17:01:33;12.10;69.90
24678;DHT22;12800;53.094;8.778;2023-03-20T17:04:22;12.10;70.00
24678;DHT22;12800;53.094;8.778;2023-03-20T17:06:52;12.00;70.40
24678;DHT22;12800;53.094;8.778;2023-03-20T17:12:13;11.90;71.00
24678;DHT22;12800;53.094;8.778;2023-03-20T17:14:40;11.80;71.40
24678;DHT22;12800;53.094;8.778;2023-03-20T17:17:13;11.80;71.50
24678;DHT22;12800;53.094;8.778;2023-03-20T17:19:39;11.80;71.70
24678;DHT22;12800;53.094;8.778;2023-03-20T17:22:28;11.80;71.70
24678;DHT22;12800;53.094;8.778;2023-03-20T17:24:54;11.80;71.90
24678;DHT22;12800;53.094;8.778;2023-03-20T17:27:21;11.70;72.00
24678;DHT22;12800;53.094;8.778;2023-03-20T17:29:48;11.70;72.20
24678;DHT22;12800;53.094;8.778;2023-03-20T17:32:19;11.60;72.50
24678;DHT22;12800;53.094;8.778;2023-03-20T17:34:48;11.60;72.90
24678;DHT22;12800;53.094;8.778;2023-03-20T17:37:19;11.50;73.10
24678;DHT22;12800;53.094;8.778;2023-03-20T17:39:46;11.50;73.50
24678;DHT22;12800;53.094;8.778;2023-03-20T17:42:17;11.50;73.70
24678;DHT22;12800;53.094;8.778;2023-03-20T17:44:43;11.50;74.90
24678;DHT22;12800;53.094;8.778;2023-03-20T17:47:15;11.50;74.10
24678;DHT22;12800;53.094;8.778;2023-03-20T17:49:41;11.40;74.30
24678;DHT22;12800;53.094;8.778;2023-03-20T17:52:15;11.40;74.30
24678;DHT22;12800;53.094;8.778;2023-03-20T17:54:43;11.40;74.60
24678;DHT22;12800;53.094;8.778;2023-03-20T17:57:19;11.40;74.80
24678;DHT22;12800;53.094;8.778;2023-03-20T17:59:46;11.30;74.90
24678;DHT22;12800;53.094;8.778;2023-03-20T18:02:14;11.30;75.10
24678;DHT22;12800;53.094;8.778;2023-03-20T18:04:39;11.30;75.30